sensor_id;sensor_type;location;lat;lon;timestamp;P1;durP1;ratioP1;P2;durP2;ratioP2
71965;SDS011;59836;52.132;5.442;2022-12-07T00:01:31;3.13;;;1.80;;
71965;SDS011;59836;52.132;5.442;2022-12-07T00:04:00;3.85;;;1.98;;
71965;SDS011;59836;52.132;5.442;2022-12-07T00:06:33;3.80;;;2.15;;
71965;SDS011;59836;52.132;5.442;2022-12-07T00:09:01;4.60;;;1.90;;
71965;SDS011;59836;52.132;5.442;2022-12-07T00:11:28;3.42;;;2.13;;
71965;SDS011;59836;52.132;5.442;2022-12-07T00:13:59;3.13;;;1.77;;
71965;SDS011;59836;52.132;5.442;2022-12-07T00:16:29;5.72;;;2.33;;
71965;SDS011;59836;52.132;5.442;2022-12-07T00:18:57;3.83;;;2.00;;
71965;SDS011;59836;52.132;5.442;2022-12-07T00:21:24;5.78;;;1.73;;
71965;SDS011;59836;52.132;5.442;2022-12-07T00:23:53;4.78;;;2.00;;
71965;SDS011;59836;52.132;5.442;2022-12-07T00:26:25;4.17;;;1.90;;
71965;SDS011;59836;52.132;5.442;2022-12-07T00:28:57;3.70;;;2.08;;
71965;SDS011;59836;52.132;5.442;2022-12-07T00:31:27;3.60;;;2.33;;
71965;SDS011;59836;52.132;5.442;2022-12-07T00:33:57;3.85;;;1.95;;
71965;SDS011;59836;52.132;5.442;2022-12-07T00:36:24;2.90;;;1.65;;
71965;SDS011;59836;52.132;5.442;2022-12-07T00:38:53;4.40;;;1.60;;
71965;SDS011;59836;52.132;5.442;2022-12-07T00:41:21;5.03;;;1.90;;
71965;SDS011;59836;52.132;5.442;2022-12-07T00:43:49;5.55;;;2.30;;
71965;SDS011;59836;52.132;5.442;2022-12-07T00:46:16;5.13;;;1.63;;
71965;SDS011;59836;52.132;5.442;2022-12-07T00:48:44;3.08;;;1.65;;
71965;SDS011;59836;52.132;5.442;2022-12-07T00:51:11;5.13;;;1.53;;
71965;SDS011;59836;52.132;5.442;2022-12-07T00:53:38;4.28;;;1.77;;
71965;SDS011;59836;52.132;5.442;2022-12-07T00:56:08;2.97;;;1.60;;
71965;SDS011;59836;52.132;5.442;2022-12-07T00:58:37;4.63;;;1.92;;
71965;SDS011;59836;52.132;5.442;2022-12-07T01:01:04;3.13;;;1.77;;
71965;SDS011;59836;52.132;5.442;2022-12-07T01:03:31;4.90;;;1.60;;
71965;SDS011;59836;52.132;5.442;2022-12-07T01:05:58;5.05;;;1.40;;
71965;SDS011;59836;52.132;5.442;2022-12-07T01:08:25;3.95;;;1.60;;
71965;SDS011;59836;52.132;5.442;2022-12-07T01:10:59;5.10;;;1.77;;
71965;SDS011;59836;52.132;5.442;2022-12-07T01:13:31;6.57;;;2.00;;
71965;SDS011;59836;52.132;5.442;2022-12-07T01:15:58;4.67;;;1.50;;
71965;SDS011;59836;52.132;5.442;2022-12-07T01:18:29;4.72;;;1.70;;
71965;SDS011;59836;52.132;5.442;2022-12-07T01:21:04;5.20;;;2.25;;
71965;SDS011;59836;52.132;5.442;2022-12-07T01:23:33;5.60;;;1.92;;
71965;SDS011;59836;52.132;5.442;2022-12-07T01:26:02;5.82;;;1.58;;
71965;SDS011;59836;52.132;5.442;2022-12-07T01:28:31;4.13;;;1.70;;
71965;SDS011;59836;52.132;5.442;2022-12-07T01:30:59;3.03;;;1.25;;
71965;SDS011;59836;52.132;5.442;2022-12-07T01:33:27;5.82;;;1.77;;
71965;SDS011;59836;52.132;5.442;2022-12-07T01:36:00;4.55;;;1.35;;
71965;SDS011;59836;52.132;5.442;2022-12-07T01:38:27;4.47;;;1.48;;
71965;SDS011;59836;52.132;5.442;2022-12-07T01:40:55;3.17;;;1.57;;
71965;SDS011;59836;52.132;5.442;2022-12-07T01:43:22;3.60;;;1.60;;
71965;SDS011;59836;52.132;5.442;2022-12-07T01:45:51;2.78;;;1.42;;
71965;SDS011;59836;52.132;5.442;2022-12-07T01:48:18;5.00;;;1.20;;
71965;SDS011;59836;52.132;5.442;2022-12-07T01:50:50;5.70;;;1.20;;
71965;SDS011;59836;52.132;5.442;2022-12-07T01:53:19;5.67;;;1.37;;
71965;SDS011;59836;52.132;5.442;2022-12-07T01:55:48;3.83;;;0.95;;
71965;SDS011;59836;52.132;5.442;2022-12-07T01:58:16;5.40;;;1.33;;
71965;SDS011;59836;52.132;5.442;2022-12-07T02:00:43;4.13;;;1.20;;
71965;SDS011;59836;52.132;5.442;2022-12-07T02:03:14;2.72;;;1.17;;
71965;SDS011;59836;52.132;5.442;2022-12-07T02:05:45;4.43;;;0.83;;
71965;SDS011;59836;52.132;5.442;2022-12-07T02:08:12;3.30;;;1.27;;
71965;SDS011;59836;52.132;5.442;2022-12-07T02:10:40;4.22;;;1.40;;
71965;SDS011;59836;52.132;5.442;2022-12-07T02:13:11;3.58;;;0.90;;
71965;SDS011;59836;52.132;5.442;2022-12-07T02:15:50;4.03;;;1.33;;
71965;SDS011;59836;52.132;5.442;2022-12-07T02:18:25;4.60;;;1.20;;
71965;SDS011;59836;52.132;5.442;2022-12-07T02:23:40;4.82;;;1.38;;
71965;SDS011;59836;52.132;5.442;2022-12-07T02:26:29;4.68;;;1.20;;
71965;SDS011;59836;52.132;5.442;2022-12-07T02:32:11;6.00;;;1.20;;
71965;SDS011;59836;52.132;5.442;2022-12-07T02:40:01;2.85;;;1.10;;
71965;SDS011;59836;52.132;5.442;2022-12-07T02:42:36;1.38;;;1.02;;
71965;SDS011;59836;52.132;5.442;2022-12-07T02:45:07;3.17;;;1.10;;
71965;SDS011;59836;52.132;5.442;2022-12-07T02:47:35;3.00;;;1.02;;
71965;SDS011;59836;52.132;5.442;2022-12-07T02:50:06;6.90;;;1.10;;
71965;SDS011;59836;52.132;5.442;2022-12-07T02:52:33;3.78;;;0.60;;
71965;SDS011;59836;52.132;5.442;2022-12-07T02:54:59;2.83;;;1.10;;
71965;SDS011;59836;52.132;5.442;2022-12-07T02:57:42;3.40;;;0.93;;
71965;SDS011;59836;52.132;5.442;2022-12-07T03:00:19;4.72;;;0.90;;
71965;SDS011;59836;52.132;5.442;2022-12-07T03:03:00;4.25;;;1.17;;
71965;SDS011;59836;52.132;5.442;2022-12-07T03:11:16;2.70;;;0.93;;
71965;SDS011;59836;52.132;5.442;2022-12-07T03:14:04;3.33;;;1.10;;
71965;SDS011;59836;52.132;5.442;2022-12-07T03:16:42;4.82;;;0.68;;
71965;SDS011;59836;52.132;5.442;2022-12-07T03:19:15;2.22;;;0.75;;
71965;SDS011;59836;52.132;5.442;2022-12-07T03:21:56;2.38;;;0.77;;
71965;SDS011;59836;52.132;5.442;2022-12-07T03:24:27;4.23;;;0.73;;
71965;SDS011;59836;52.132;5.442;2022-12-07T03:27:04;2.08;;;0.70;;
71965;SDS011;59836;52.132;5.442;2022-12-07T03:29:36;3.90;;;1.13;;
71965;SDS011;59836;52.132;5.442;2022-12-07T03:32:14;3.60;;;0.57;;
71965;SDS011;59836;52.132;5.442;2022-12-07T03:37:50;1.87;;;0.83;;
71965;SDS011;59836;52.132;5.442;2022-12-07T03:40:27;5.15;;;0.75;;
71965;SDS011;59836;52.132;5.442;2022-12-07T03:42:59;2.65;;;0.90;;
71965;SDS011;59836;52.132;5.442;2022-12-07T03:45:38;6.95;;;0.70;;
71965;SDS011;59836;52.132;5.442;2022-12-07T03:48:08;2.35;;;0.55;;
71965;SDS011;59836;52.132;5.442;2022-12-07T03:53:49;5.30;;;0.55;;
71965;SDS011;59836;52.132;5.442;2022-12-07T03:56:28;2.05;;;0.70;;
71965;SDS011;59836;52.132;5.442;2022-12-07T03:58:55;3.47;;;0.52;;
71965;SDS011;59836;52.132;5.442;2022-12-07T04:01:22;9.52;;;1.17;;
71965;SDS011;59836;52.132;5.442;2022-12-07T04:03:49;5.83;;;1.30;;
71965;SDS011;59836;52.132;5.442;2022-12-07T04:06:16;2.88;;;1.00;;
71965;SDS011;59836;52.132;5.442;2022-12-07T04:08:43;4.30;;;1.05;;
71965;SDS011;59836;52.132;5.442;2022-12-07T04:11:09;4.95;;;0.90;;
71965;SDS011;59836;52.132;5.442;2022-12-07T04:13:36;4.88;;;0.70;;
71965;SDS011;59836;52.132;5.442;2022-12-07T04:16:22;1.63;;;0.60;;
71965;SDS011;59836;52.132;5.442;2022-12-07T04:18:48;4.15;;;0.93;;
71965;SDS011;59836;52.132;5.442;2022-12-07T04:21:15;4.45;;;1.10;;
71965;SDS011;59836;52.132;5.442;2022-12-07T04:23:41;4.35;;;0.68;;
71965;SDS011;59836;52.132;5.442;2022-12-07T04:26:07;1.92;;;0.60;;
71965;SDS011;59836;52.132;5.442;2022-12-07T04:28:34;4.97;;;0.50;;
71965;SDS011;59836;52.132;5.442;2022-12-07T04:31:00;7.18;;;0.80;;
71965;SDS011;59836;52.132;5.442;2022-12-07T04:33:27;5.97;;;1.15;;
71965;SDS011;59836;52.132;5.442;2022-12-07T04:35:53;2.72;;;0.60;;
71965;SDS011;59836;52.132;5.442;2022-12-07T04:38:20;3.15;;;0.85;;
71965;SDS011;59836;52.132;5.442;2022-12-07T04:40:46;2.80;;;0.60;;
71965;SDS011;59836;52.132;5.442;2022-12-07T04:43:12;1.73;;;0.40;;
71965;SDS011;59836;52.132;5.442;2022-12-07T04:45:39;2.08;;;0.77;;
71965;SDS011;59836;52.132;5.442;2022-12-07T04:48:05;2.45;;;1.05;;
71965;SDS011;59836;52.132;5.442;2022-12-07T04:50:32;3.00;;;0.73;;
71965;SDS011;59836;52.132;5.442;2022-12-07T04:52:58;1.50;;;0.63;;
71965;SDS011;59836;52.132;5.442;2022-12-07T04:55:24;4.13;;;0.73;;
71965;SDS011;59836;52.132;5.442;2022-12-07T04:57:51;2.28;;;1.02;;
71965;SDS011;59836;52.132;5.442;2022-12-07T05:00:17;1.27;;;0.70;;
71965;SDS011;59836;52.132;5.442;2022-12-07T05:02:44;3.17;;;0.70;;
71965;SDS011;59836;52.132;5.442;2022-12-07T05:05:10;3.70;;;0.80;;
71965;SDS011;59836;52.132;5.442;2022-12-07T05:07:36;3.25;;;0.60;;
71965;SDS011;59836;52.132;5.442;2022-12-07T05:10:03;3.13;;;0.55;;
71965;SDS011;59836;52.132;5.442;2022-12-07T05:12:30;5.32;;;0.40;;
71965;SDS011;59836;52.132;5.442;2022-12-07T05:14:57;2.45;;;0.57;;
71965;SDS011;59836;52.132;5.442;2022-12-07T05:17:23;2.40;;;0.70;;
71965;SDS011;59836;52.132;5.442;2022-12-07T05:19:50;2.25;;;0.93;;
71965;SDS011;59836;52.132;5.442;2022-12-07T05:22:16;4.72;;;0.85;;
71965;SDS011;59836;52.132;5.442;2022-12-07T05:24:42;1.48;;;0.30;;
71965;SDS011;59836;52.132;5.442;2022-12-07T05:27:09;1.98;;;0.50;;
71965;SDS011;59836;52.132;5.442;2022-12-07T05:29:35;1.60;;;0.47;;
71965;SDS011;59836;52.132;5.442;2022-12-07T05:32:01;2.13;;;0.40;;
71965;SDS011;59836;52.132;5.442;2022-12-07T05:34:28;2.25;;;0.60;;
71965;SDS011;59836;52.132;5.442;2022-12-07T05:36:54;2.22;;;0.38;;
71965;SDS011;59836;52.132;5.442;2022-12-07T05:39:21;3.83;;;0.63;;
71965;SDS011;59836;52.132;5.442;2022-12-07T05:41:47;1.30;;;0.50;;
71965;SDS011;59836;52.132;5.442;2022-12-07T05:44:32;2.15;;;0.50;;
71965;SDS011;59836;52.132;5.442;2022-12-07T05:46:58;2.85;;;0.50;;
71965;SDS011;59836;52.132;5.442;2022-12-07T05:49:25;2.35;;;0.57;;
71965;SDS011;59836;52.132;5.442;2022-12-07T05:51:51;2.03;;;0.60;;
71965;SDS011;59836;52.132;5.442;2022-12-07T05:54:18;1.37;;;0.30;;
71965;SDS011;59836;52.132;5.442;2022-12-07T05:56:44;4.50;;;0.60;;
71965;SDS011;59836;52.132;5.442;2022-12-07T05:59:10;4.18;;;0.52;;
71965;SDS011;59836;52.132;5.442;2022-12-07T06:01:50;1.63;;;0.47;;
71965;SDS011;59836;52.132;5.442;2022-12-07T06:04:19;3.63;;;0.47;;
71965;SDS011;59836;52.132;5.442;2022-12-07T06:06:47;2.03;;;0.40;;
71965;SDS011;59836;52.132;5.442;2022-12-07T06:09:13;1.90;;;0.40;;
71965;SDS011;59836;52.132;5.442;2022-12-07T06:11:40;3.70;;;0.63;;
71965;SDS011;59836;52.132;5.442;2022-12-07T06:14:25;2.78;;;0.55;;
71965;SDS011;59836;52.132;5.442;2022-12-07T06:16:52;3.13;;;0.88;;
71965;SDS011;59836;52.132;5.442;2022-12-07T06:19:18;4.30;;;0.87;;
71965;SDS011;59836;52.132;5.442;2022-12-07T06:21:45;3.15;;;0.80;;
71965;SDS011;59836;52.132;5.442;2022-12-07T06:24:12;2.65;;;0.75;;
71965;SDS011;59836;52.132;5.442;2022-12-07T06:26:39;3.38;;;0.60;;
71965;SDS011;59836;52.132;5.442;2022-12-07T06:29:06;6.05;;;1.20;;
71965;SDS011;59836;52.132;5.442;2022-12-07T06:31:33;6.43;;;0.77;;
71965;SDS011;59836;52.132;5.442;2022-12-07T06:34:04;3.20;;;0.63;;
71965;SDS011;59836;52.132;5.442;2022-12-07T06:36:32;4.97;;;1.08;;
71965;SDS011;59836;52.132;5.442;2022-12-07T06:38:59;3.88;;;0.88;;
71965;SDS011;59836;52.132;5.442;2022-12-07T06:41:25;2.20;;;0.82;;
71965;SDS011;59836;52.132;5.442;2022-12-07T06:43:52;2.10;;;0.77;;
71965;SDS011;59836;52.132;5.442;2022-12-07T06:46:21;1.42;;;0.70;;
71965;SDS011;59836;52.132;5.442;2022-12-07T06:48:49;2.70;;;0.80;;
71965;SDS011;59836;52.132;5.442;2022-12-07T06:51:15;4.63;;;0.50;;
71965;SDS011;59836;52.132;5.442;2022-12-07T06:53:42;4.57;;;0.95;;
71965;SDS011;59836;52.132;5.442;2022-12-07T06:56:09;2.07;;;0.80;;
71965;SDS011;59836;52.132;5.442;2022-12-07T06:58:36;3.70;;;0.70;;
71965;SDS011;59836;52.132;5.442;2022-12-07T07:01:02;5.80;;;0.93;;
71965;SDS011;59836;52.132;5.442;2022-12-07T07:03:34;2.85;;;0.47;;
71965;SDS011;59836;52.132;5.442;2022-12-07T07:06:00;2.97;;;0.85;;
71965;SDS011;59836;52.132;5.442;2022-12-07T07:08:27;3.30;;;1.10;;
71965;SDS011;59836;52.132;5.442;2022-12-07T07:10:53;2.97;;;0.73;;
71965;SDS011;59836;52.132;5.442;2022-12-07T07:13:19;1.75;;;0.45;;
71965;SDS011;59836;52.132;5.442;2022-12-07T07:15:46;4.78;;;1.15;;
71965;SDS011;59836;52.132;5.442;2022-12-07T07:18:12;3.03;;;0.70;;
71965;SDS011;59836;52.132;5.442;2022-12-07T07:20:39;2.47;;;0.60;;
71965;SDS011;59836;52.132;5.442;2022-12-07T07:23:06;3.80;;;0.98;;
71965;SDS011;59836;52.132;5.442;2022-12-07T07:25:33;3.15;;;1.05;;
71965;SDS011;59836;52.132;5.442;2022-12-07T07:27:59;4.45;;;1.08;;
71965;SDS011;59836;52.132;5.442;2022-12-07T07:30:26;4.25;;;1.20;;
71965;SDS011;59836;52.132;5.442;2022-12-07T07:32:56;3.83;;;1.00;;
71965;SDS011;59836;52.132;5.442;2022-12-07T07:35:24;3.45;;;0.77;;
71965;SDS011;59836;52.132;5.442;2022-12-07T07:37:52;4.03;;;1.10;;
71965;SDS011;59836;52.132;5.442;2022-12-07T07:40:18;7.53;;;1.27;;
71965;SDS011;59836;52.132;5.442;2022-12-07T07:42:46;2.42;;;0.98;;
71965;SDS011;59836;52.132;5.442;2022-12-07T07:45:14;2.63;;;0.90;;
71965;SDS011;59836;52.132;5.442;2022-12-07T07:47:40;4.00;;;1.58;;
71965;SDS011;59836;52.132;5.442;2022-12-07T07:50:07;7.15;;;1.75;;
71965;SDS011;59836;52.132;5.442;2022-12-07T07:52:34;3.95;;;1.08;;
71965;SDS011;59836;52.132;5.442;2022-12-07T07:55:00;3.17;;;1.40;;
71965;SDS011;59836;52.132;5.442;2022-12-07T07:57:26;8.10;;;1.93;;
71965;SDS011;59836;52.132;5.442;2022-12-07T07:59:53;7.85;;;1.20;;
71965;SDS011;59836;52.132;5.442;2022-12-07T08:02:20;4.35;;;1.65;;
71965;SDS011;59836;52.132;5.442;2022-12-07T08:04:46;3.35;;;1.33;;
71965;SDS011;59836;52.132;5.442;2022-12-07T08:07:14;2.75;;;1.40;;
71965;SDS011;59836;52.132;5.442;2022-12-07T08:09:41;4.87;;;1.40;;
71965;SDS011;59836;52.132;5.442;2022-12-07T08:12:08;1.83;;;0.82;;
71965;SDS011;59836;52.132;5.442;2022-12-07T08:14:34;3.42;;;1.20;;
71965;SDS011;59836;52.132;5.442;2022-12-07T08:17:01;5.25;;;1.20;;
71965;SDS011;59836;52.132;5.442;2022-12-07T08:19:27;4.03;;;1.20;;
71965;SDS011;59836;52.132;5.442;2022-12-07T08:21:54;4.97;;;0.90;;
71965;SDS011;59836;52.132;5.442;2022-12-07T08:24:22;3.95;;;1.40;;
71965;SDS011;59836;52.132;5.442;2022-12-07T08:26:48;5.55;;;1.15;;
71965;SDS011;59836;52.132;5.442;2022-12-07T08:29:16;3.25;;;0.88;;
71965;SDS011;59836;52.132;5.442;2022-12-07T08:31:42;1.95;;;0.88;;
71965;SDS011;59836;52.132;5.442;2022-12-07T08:34:12;2.73;;;1.10;;
71965;SDS011;59836;52.132;5.442;2022-12-07T08:36:39;5.65;;;1.20;;
71965;SDS011;59836;52.132;5.442;2022-12-07T08:39:06;4.80;;;1.50;;
71965;SDS011;59836;52.132;5.442;2022-12-07T08:41:52;3.17;;;1.02;;
71965;SDS011;59836;52.132;5.442;2022-12-07T08:44:19;3.90;;;1.20;;
71965;SDS011;59836;52.132;5.442;2022-12-07T08:46:53;3.27;;;0.70;;
71965;SDS011;59836;52.132;5.442;2022-12-07T08:49:30;3.08;;;0.93;;
71965;SDS011;59836;52.132;5.442;2022-12-07T08:52:00;3.03;;;1.10;;
71965;SDS011;59836;52.132;5.442;2022-12-07T08:54:28;4.38;;;1.00;;
71965;SDS011;59836;52.132;5.442;2022-12-07T08:56:55;3.35;;;0.80;;
71965;SDS011;59836;52.132;5.442;2022-12-07T08:59:25;4.63;;;0.90;;
71965;SDS011;59836;52.132;5.442;2022-12-07T09:01:52;2.53;;;1.05;;
71965;SDS011;59836;52.132;5.442;2022-12-07T09:04:19;3.75;;;1.35;;
71965;SDS011;59836;52.132;5.442;2022-12-07T09:06:46;8.32;;;1.50;;
71965;SDS011;59836;52.132;5.442;2022-12-07T09:09:13;4.05;;;1.05;;
71965;SDS011;59836;52.132;5.442;2022-12-07T09:11:40;2.20;;;0.93;;
71965;SDS011;59836;52.132;5.442;2022-12-07T09:14:07;2.95;;;0.77;;
71965;SDS011;59836;52.132;5.442;2022-12-07T09:16:33;2.83;;;0.85;;
71965;SDS011;59836;52.132;5.442;2022-12-07T09:19:00;3.15;;;0.80;;
71965;SDS011;59836;52.132;5.442;2022-12-07T09:21:26;2.72;;;0.90;;
71965;SDS011;59836;52.132;5.442;2022-12-07T09:23:53;6.10;;;1.10;;
71965;SDS011;59836;52.132;5.442;2022-12-07T09:26:19;3.45;;;1.08;;
71965;SDS011;59836;52.132;5.442;2022-12-07T09:28:45;4.63;;;2.00;;
71965;SDS011;59836;52.132;5.442;2022-12-07T09:31:12;4.38;;;1.83;;
71965;SDS011;59836;52.132;5.442;2022-12-07T09:34:00;3.97;;;1.67;;
71965;SDS011;59836;52.132;5.442;2022-12-07T09:36:27;4.20;;;1.30;;
71965;SDS011;59836;52.132;5.442;2022-12-07T09:38:55;3.97;;;1.17;;
71965;SDS011;59836;52.132;5.442;2022-12-07T09:41:21;4.75;;;1.48;;
71965;SDS011;59836;52.132;5.442;2022-12-07T09:43:50;2.65;;;1.08;;
71965;SDS011;59836;52.132;5.442;2022-12-07T09:46:19;2.83;;;0.73;;
71965;SDS011;59836;52.132;5.442;2022-12-07T09:48:47;4.73;;;0.90;;
71965;SDS011;59836;52.132;5.442;2022-12-07T09:51:16;4.68;;;1.20;;
71965;SDS011;59836;52.132;5.442;2022-12-07T09:53:50;6.40;;;1.05;;
71965;SDS011;59836;52.132;5.442;2022-12-07T09:56:21;4.18;;;0.70;;
71965;SDS011;59836;52.132;5.442;2022-12-07T09:58:49;1.98;;;0.50;;
71965;SDS011;59836;52.132;5.442;2022-12-07T10:01:27;4.10;;;0.73;;
71965;SDS011;59836;52.132;5.442;2022-12-07T10:04:14;4.03;;;1.20;;
71965;SDS011;59836;52.132;5.442;2022-12-07T10:06:41;4.35;;;0.98;;
71965;SDS011;59836;52.132;5.442;2022-12-07T10:09:12;1.52;;;0.60;;
71965;SDS011;59836;52.132;5.442;2022-12-07T10:14:33;3.80;;;0.70;;
71965;SDS011;59836;52.132;5.442;2022-12-07T10:17:32;6.45;;;0.73;;
71965;SDS011;59836;52.132;5.442;2022-12-07T10:23:04;1.00;;;0.35;;
71965;SDS011;59836;52.132;5.442;2022-12-07T10:25:39;3.90;;;0.60;;
71965;SDS011;59836;52.132;5.442;2022-12-07T10:30:33;1.90;;;0.70;;
71965;SDS011;59836;52.132;5.442;2022-12-07T10:33:33;2.50;;;0.63;;
71965;SDS011;59836;52.132;5.442;2022-12-07T10:36:01;2.13;;;0.60;;
71965;SDS011;59836;52.132;5.442;2022-12-07T10:38:47;3.13;;;0.77;;
71965;SDS011;59836;52.132;5.442;2022-12-07T10:41:19;6.90;;;1.70;;
71965;SDS011;59836;52.132;5.442;2022-12-07T10:43:46;4.30;;;1.00;;
71965;SDS011;59836;52.132;5.442;2022-12-07T10:46:35;2.50;;;0.88;;
71965;SDS011;59836;52.132;5.442;2022-12-07T10:49:28;6.43;;;1.00;;
71965;SDS011;59836;52.132;5.442;2022-12-07T10:52:14;6.35;;;0.90;;
71965;SDS011;59836;52.132;5.442;2022-12-07T10:57:28;2.05;;;0.70;;
71965;SDS011;59836;52.132;5.442;2022-12-07T11:03:39;3.30;;;0.80;;
71965;SDS011;59836;52.132;5.442;2022-12-07T11:09:26;2.27;;;0.67;;
71965;SDS011;59836;52.132;5.442;2022-12-07T11:12:32;2.78;;;0.60;;
71965;SDS011;59836;52.132;5.442;2022-12-07T11:15:21;6.03;;;1.02;;
71965;SDS011;59836;52.132;5.442;2022-12-07T11:18:03;3.00;;;0.50;;
71965;SDS011;59836;52.132;5.442;2022-12-07T11:23:27;2.90;;;0.70;;
71965;SDS011;59836;52.132;5.442;2022-12-07T11:31:51;4.55;;;0.65;;
71965;SDS011;59836;52.132;5.442;2022-12-07T11:34:36;3.63;;;0.60;;
71965;SDS011;59836;52.132;5.442;2022-12-07T11:37:09;4.37;;;0.60;;
71965;SDS011;59836;52.132;5.442;2022-12-07T11:39:42;2.78;;;0.70;;
71965;SDS011;59836;52.132;5.442;2022-12-07T11:42:22;2.55;;;0.60;;
71965;SDS011;59836;52.132;5.442;2022-12-07T11:44:56;2.72;;;0.90;;
71965;SDS011;59836;52.132;5.442;2022-12-07T11:47:41;5.25;;;1.05;;
71965;SDS011;59836;52.132;5.442;2022-12-07T12:03:46;3.53;;;0.60;;
71965;SDS011;59836;52.132;5.442;2022-12-07T12:06:18;6.32;;;1.17;;
71965;SDS011;59836;52.132;5.442;2022-12-07T12:08:56;3.50;;;0.70;;
71965;SDS011;59836;52.132;5.442;2022-12-07T12:15:13;1.00;;;0.60;;
71965;SDS011;59836;52.132;5.442;2022-12-07T12:17:51;6.93;;;0.80;;
71965;SDS011;59836;52.132;5.442;2022-12-07T12:20:40;3.47;;;0.65;;
71965;SDS011;59836;52.132;5.442;2022-12-07T12:23:14;2.75;;;1.00;;
71965;SDS011;59836;52.132;5.442;2022-12-07T12:25:46;3.92;;;0.82;;
71965;SDS011;59836;52.132;5.442;2022-12-07T12:29:00;2.17;;;0.43;;
71965;SDS011;59836;52.132;5.442;2022-12-07T12:31:04;1.37;;;0.53;;
71965;SDS011;59836;52.132;5.442;2022-12-07T12:33:33;2.17;;;0.43;;
71965;SDS011;59836;52.132;5.442;2022-12-07T12:46:46;2.35;;;0.70;;
71965;SDS011;59836;52.132;5.442;2022-12-07T12:49:30;2.42;;;0.90;;
71965;SDS011;59836;52.132;5.442;2022-12-07T12:52:00;2.95;;;0.73;;
71965;SDS011;59836;52.132;5.442;2022-12-07T12:58:41;2.30;;;0.40;;
71965;SDS011;59836;52.132;5.442;2022-12-07T13:03:53;3.90;;;0.80;;
71965;SDS011;59836;52.132;5.442;2022-12-07T13:08:51;1.25;;;0.65;;
71965;SDS011;59836;52.132;5.442;2022-12-07T13:11:20;1.27;;;0.50;;
71965;SDS011;59836;52.132;5.442;2022-12-07T13:16:59;3.58;;;0.65;;
71965;SDS011;59836;52.132;5.442;2022-12-07T13:28:00;0.93;;;0.40;;
71965;SDS011;59836;52.132;5.442;2022-12-07T13:30:40;0.93;;;0.50;;
71965;SDS011;59836;52.132;5.442;2022-12-07T13:33:11;0.52;;;0.30;;
71965;SDS011;59836;52.132;5.442;2022-12-07T13:35:39;1.08;;;0.70;;
71965;SDS011;59836;52.132;5.442;2022-12-07T13:38:27;1.73;;;0.50;;
71965;SDS011;59836;52.132;5.442;2022-12-07T13:43:28;3.45;;;1.05;;
71965;SDS011;59836;52.132;5.442;2022-12-07T13:45:57;2.83;;;0.90;;
71965;SDS011;59836;52.132;5.442;2022-12-07T13:48:31;2.03;;;0.88;;
71965;SDS011;59836;52.132;5.442;2022-12-07T13:51:01;1.47;;;0.60;;
71965;SDS011;59836;52.132;5.442;2022-12-07T13:53:30;3.05;;;0.77;;
71965;SDS011;59836;52.132;5.442;2022-12-07T13:55:57;3.20;;;0.95;;
71965;SDS011;59836;52.132;5.442;2022-12-07T13:58:26;3.00;;;1.13;;
71965;SDS011;59836;52.132;5.442;2022-12-07T14:00:55;2.17;;;0.95;;
71965;SDS011;59836;52.132;5.442;2022-12-07T14:03:30;1.90;;;0.97;;
71965;SDS011;59836;52.132;5.442;2022-12-07T14:06:15;3.08;;;1.50;;
71965;SDS011;59836;52.132;5.442;2022-12-07T14:09:06;3.90;;;1.58;;
71965;SDS011;59836;52.132;5.442;2022-12-07T14:11:33;3.17;;;1.00;;
71965;SDS011;59836;52.132;5.442;2022-12-07T14:14:01;6.13;;;1.17;;
71965;SDS011;59836;52.132;5.442;2022-12-07T14:16:30;3.73;;;1.20;;
71965;SDS011;59836;52.132;5.442;2022-12-07T14:19:00;3.03;;;1.23;;
71965;SDS011;59836;52.132;5.442;2022-12-07T14:21:29;3.78;;;1.00;;
71965;SDS011;59836;52.132;5.442;2022-12-07T14:24:15;1.90;;;0.80;;
71965;SDS011;59836;52.132;5.442;2022-12-07T14:26:47;2.63;;;0.80;;
71965;SDS011;59836;52.132;5.442;2022-12-07T14:29:18;5.53;;;0.90;;
71965;SDS011;59836;52.132;5.442;2022-12-07T14:31:45;3.65;;;0.98;;
71965;SDS011;59836;52.132;5.442;2022-12-07T14:34:12;4.65;;;1.27;;
71965;SDS011;59836;52.132;5.442;2022-12-07T14:36:39;3.38;;;0.77;;
71965;SDS011;59836;52.132;5.442;2022-12-07T14:39:05;6.32;;;1.38;;
71965;SDS011;59836;52.132;5.442;2022-12-07T14:41:38;5.90;;;0.80;;
71965;SDS011;59836;52.132;5.442;2022-12-07T14:44:17;2.83;;;1.08;;
71965;SDS011;59836;52.132;5.442;2022-12-07T14:46:53;1.88;;;0.80;;
71965;SDS011;59836;52.132;5.442;2022-12-07T14:49:39;4.85;;;0.70;;
71965;SDS011;59836;52.132;5.442;2022-12-07T14:52:06;2.13;;;0.70;;
71965;SDS011;59836;52.132;5.442;2022-12-07T14:55:00;2.40;;;0.60;;
71965;SDS011;59836;52.132;5.442;2022-12-07T14:57:27;3.95;;;0.68;;
71965;SDS011;59836;52.132;5.442;2022-12-07T14:59:54;3.38;;;0.77;;
71965;SDS011;59836;52.132;5.442;2022-12-07T15:02:20;3.35;;;0.65;;
71965;SDS011;59836;52.132;5.442;2022-12-07T15:04:46;4.18;;;0.70;;
71965;SDS011;59836;52.132;5.442;2022-12-07T15:07:19;4.50;;;0.90;;
71965;SDS011;59836;52.132;5.442;2022-12-07T15:09:47;2.40;;;0.77;;
71965;SDS011;59836;52.132;5.442;2022-12-07T15:12:14;2.17;;;0.95;;
71965;SDS011;59836;52.132;5.442;2022-12-07T15:14:41;4.78;;;0.80;;
71965;SDS011;59836;52.132;5.442;2022-12-07T15:17:09;3.83;;;0.65;;
71965;SDS011;59836;52.132;5.442;2022-12-07T15:19:51;5.60;;;1.00;;
71965;SDS011;59836;52.132;5.442;2022-12-07T15:22:17;4.28;;;1.10;;
71965;SDS011;59836;52.132;5.442;2022-12-07T15:24:44;2.95;;;1.25;;
71965;SDS011;59836;52.132;5.442;2022-12-07T15:27:10;2.67;;;0.82;;
71965;SDS011;59836;52.132;5.442;2022-12-07T15:29:36;2.70;;;0.80;;
71965;SDS011;59836;52.132;5.442;2022-12-07T15:32:03;2.23;;;0.57;;
71965;SDS011;59836;52.132;5.442;2022-12-07T15:34:29;1.73;;;0.40;;
71965;SDS011;59836;52.132;5.442;2022-12-07T15:37:05;2.45;;;0.65;;
71965;SDS011;59836;52.132;5.442;2022-12-07T15:39:32;2.33;;;0.40;;
71965;SDS011;59836;52.132;5.442;2022-12-07T15:41:59;3.70;;;0.88;;
71965;SDS011;59836;52.132;5.442;2022-12-07T15:44:25;1.30;;;0.50;;
71965;SDS011;59836;52.132;5.442;2022-12-07T15:47:10;2.67;;;0.60;;
71965;SDS011;59836;52.132;5.442;2022-12-07T15:49:37;3.20;;;0.77;;
71965;SDS011;59836;52.132;5.442;2022-12-07T15:52:03;2.60;;;0.80;;
71965;SDS011;59836;52.132;5.442;2022-12-07T15:54:30;5.43;;;0.75;;
71965;SDS011;59836;52.132;5.442;2022-12-07T15:56:58;2.27;;;0.70;;
71965;SDS011;59836;52.132;5.442;2022-12-07T15:59:25;1.88;;;0.70;;
71965;SDS011;59836;52.132;5.442;2022-12-07T16:01:53;3.47;;;1.23;;
71965;SDS011;59836;52.132;5.442;2022-12-07T16:04:19;3.08;;;0.90;;
71965;SDS011;59836;52.132;5.442;2022-12-07T16:06:46;3.83;;;0.98;;
71965;SDS011;59836;52.132;5.442;2022-12-07T16:09:12;2.00;;;0.73;;
71965;SDS011;59836;52.132;5.442;2022-12-07T16:11:39;2.15;;;1.33;;
71965;SDS011;59836;52.132;5.442;2022-12-07T16:14:05;3.53;;;1.40;;
71965;SDS011;59836;52.132;5.442;2022-12-07T16:16:31;3.47;;;1.20;;
71965;SDS011;59836;52.132;5.442;2022-12-07T16:18:58;4.78;;;2.03;;
71965;SDS011;59836;52.132;5.442;2022-12-07T16:21:24;3.00;;;1.70;;
71965;SDS011;59836;52.132;5.442;2022-12-07T16:23:51;3.95;;;1.88;;
71965;SDS011;59836;52.132;5.442;2022-12-07T16:26:19;5.07;;;1.42;;
71965;SDS011;59836;52.132;5.442;2022-12-07T16:28:50;3.20;;;1.55;;
71965;SDS011;59836;52.132;5.442;2022-12-07T16:31:19;3.65;;;1.73;;
71965;SDS011;59836;52.132;5.442;2022-12-07T16:33:47;3.77;;;1.83;;
71965;SDS011;59836;52.132;5.442;2022-12-07T16:36:15;4.90;;;1.48;;
71965;SDS011;59836;52.132;5.442;2022-12-07T16:39:03;4.57;;;1.80;;
71965;SDS011;59836;52.132;5.442;2022-12-07T16:41:30;3.08;;;1.63;;
71965;SDS011;59836;52.132;5.442;2022-12-07T16:43:59;3.05;;;1.50;;
71965;SDS011;59836;52.132;5.442;2022-12-07T16:46:31;2.70;;;1.50;;
71965;SDS011;59836;52.132;5.442;2022-12-07T16:48:59;6.35;;;1.40;;